• Join FlightAware (Why Join?)
  • Login
  • US Flag 
Gobble Gobble! 
12:34PM EST


 

Airport Tracker/Info


-or-


 

Live Flight TrackerFlight Track Log ✈ N546QS ✈ 30-May-2013 ✈ KAPC - KMFR

Flight Track Log - Related Links

Times and Time Zones

All times are in EDT time to prevent confusion due to time zone crossing. See the N546QS flight status page for this flight to view local times or setup timezone preferences in your user account.

Time Position Orientation Groundspeed Altitude Reporting Facility
EDT Latitude Longitude Course Direction KTS MPH feet Rate Location/Type
09:31PM 38.6600 -122.3333 North  Level FlightAware Approximate
09:32PM 38.7573 -122.3269 North  Level FlightAware Approximate
09:33PM 38.8545 -122.3199 North  Level FlightAware Approximate
09:34PM 38.9514 -122.3081 North  Level FlightAware Approximate
09:35PM 39.0484 -122.3000 North  Level FlightAware Approximate
09:35PM 38.1997 -122.2908 North 158 182 1,400  Level Oakland Center
09:36PM 39.1457 -122.2986 North  Level FlightAware Approximate
09:36PM 38.1658 -122.3514 235° Southwest 209 241 6,200  Level Oakland Center
09:37PM 39.2428 -122.2878 North  Level FlightAware Approximate
09:37PM 38.2108 -122.4050 317° Northwest 252 290 8,800  Level Oakland Center
09:38PM 39.3400 -122.2833 North  Level FlightAware Approximate
09:38PM 38.2886 -122.3958 North 278 320 11,100  Level Oakland Center
09:39PM 39.4374 -122.2806 North  Level FlightAware Approximate
09:39PM 38.3794 -122.3881 North 317 365 13,700  Level Oakland Center
09:40PM 39.5346 -122.2736 North  Level FlightAware Approximate
09:40PM 38.5028 -122.3758 North 361 415 16,900  Level Oakland Center
09:41PM 38.6114 -122.3664 North 383 441 19,600 2,400 Climbing Oakland Center
09:42PM 38.7075 -122.3581 North 397 457 21,900 2,640 Climbing Oakland Center
09:43PM 38.8481 -122.3461 North 413 475 25,100 2,820 Climbing Oakland Center
09:44PM 38.9711 -122.3392 North 430 495 27,700 2,280 Climbing Oakland Center
09:45PM 39.0953 -122.3581 353° North 442 509 29,800 1,080 Climbing Oakland Center
09:46PM 39.2250 -122.3775 353° North 461 531 30,000 60 Climbing Oakland Center
09:47PM 39.3542 -122.3967 353° North 465 535 30,000  Level Oakland Center
09:48PM 39.4833 -122.4150 354° North 466 536 30,000  Level Oakland Center
09:49PM 39.6114 -122.4353 353° North 463 533 30,000  Level Oakland Center
09:50PM 39.7397 -122.4544 353° North 463 533 30,000  Level Oakland Center
09:51PM 39.8669 -122.4742 353° North 460 529 30,000  Level Oakland Center
09:52PM 39.9936 -122.4931 353° North 458 527 30,000  Level Oakland Center
09:53PM 40.1214 -122.5144 353° North 460 529 30,000  Level Oakland Center
09:54PM 40.2508 -122.5300 355° North 463 533 30,000  Level Oakland Center
09:55PM 40.3769 -122.5486 354° North 457 526 30,000 -60 Level Oakland Center
09:56PM 40.5103 -122.5675 354° North 456 525 29,900 -960 Descending Oakland Center
09:57PM 40.6361 -122.5867 353° North 457 526 28,100 -1,440 Descending Oakland Center
09:59PM 40.7567 -122.6028 354° North 440 506 27,000 -900 Descending Oakland Center
09:59PM 40.8786 -122.6219 353° North 435 501 26,400 -1,080 Descending Seattle Center
10:00PM 40.9892 -122.6372 354° North 413 475 25,000 -900 Descending Seattle Center
10:01PM 41.0950 -122.6525 354° North 390 449 24,600 -540 Descending Seattle Center
10:02PM 41.2111 -122.6675 354° North 384 442 24,000 -540 Descending Seattle Center
10:03PM 41.3142 -122.6833 353° North 373 429 23,600 -720 Descending Seattle Center
10:04PM 41.4139 -122.6961 355° North 362 417 22,600 -840 Descending Seattle Center
10:05PM 41.5136 -122.6792 North 363 418 22,000 -900 Descending Seattle Center
10:06PM 41.6158 -122.6558 10° North 371 427 20,800 -2,340 Descending Seattle Center
10:07PM 41.7183 -122.6331 North 373 429 17,400 -3,180 Descending Seattle Center
10:09PM 41.8147 -122.6478 354° North 346 398 14,400 -2,640 Descending Seattle Center
10:10PM 41.9072 -122.6828 344° North 342 394 12,100 -1,980 Descending Seattle Center
10:11PM 41.9992 -122.7161 345° North 339 390 10,400 -1,140 Descending Seattle Center
10:12PM 42.0828 -122.7469 345° North 299 344 9,900 -840 Descending Seattle Center
10:13PM 42.1567 -122.7600 353° North 260 299 8,800 -1,140 Descending Seattle Center
10:14PM 42.2108 -122.7808 344° North 198 228 7,700 -1,440 Descending Seattle Center
10:15PM 42.2511 -122.8039 337° Northwest 160 184 5,900 -2,040 Descending Seattle Center
10:16PM 42.2944 -122.8306 336° Northwest 151 174 3,600 -1,800 Descending Seattle Center
10:17PM 42.3264 -122.8486 337° Northwest 131 151 2,300 -1,020 Descending Seattle Center
10:18PM 42.3558 -122.8631 340° North 117 135 1,600 -540 Descending Seattle Center
10:19PM 42.3775 -122.8717 344° North 75 86 1,300 -180 Descending Seattle Center
10:20PM 42.3825 -122.8739 342° North 65 75 1,300  Level Seattle Center
10:22PM 42.3742 -122.8735 324° Northwest  Level Estimated